sensor_id;sensor_type;location;lat;lon;timestamp;temperature;humidity
25953;DHT22;13750;50.804;8.764;2022-10-16T00:01:19;14.80;90.80
25953;DHT22;13750;50.804;8.764;2022-10-16T00:03:46;14.90;90.80
25953;DHT22;13750;50.804;8.764;2022-10-16T00:06:12;14.90;90.80
25953;DHT22;13750;50.804;8.764;2022-10-16T00:08:38;14.90;90.80
25953;DHT22;13750;50.804;8.764;2022-10-16T00:11:08;14.90;90.80
25953;DHT22;13750;50.804;8.764;2022-10-16T00:13:37;14.90;90.80
25953;DHT22;13750;50.804;8.764;2022-10-16T00:16:03;14.90;90.80
25953;DHT22;13750;50.804;8.764;2022-10-16T00:18:29;14.90;90.80
25953;DHT22;13750;50.804;8.764;2022-10-16T00:20:55;14.90;90.80
25953;DHT22;13750;50.804;8.764;2022-10-16T00:23:22;14.80;90.80
25953;DHT22;13750;50.804;8.764;2022-10-16T00:25:58;14.90;90.80
25953;DHT22;13750;50.804;8.764;2022-10-16T00:28:24;14.90;90.80
25953;DHT22;13750;50.804;8.764;2022-10-16T00:30:50;14.90;90.80
25953;DHT22;13750;50.804;8.764;2022-10-16T00:33:16;14.80;90.70
25953;DHT22;13750;50.804;8.764;2022-10-16T00:35:41;14.90;90.70
25953;DHT22;13750;50.804;8.764;2022-10-16T00:38:07;14.80;90.60
25953;DHT22;13750;50.804;8.764;2022-10-16T00:40:33;14.80;90.60
25953;DHT22;13750;50.804;8.764;2022-10-16T00:42:58;14.80;90.60
25953;DHT22;13750;50.804;8.764;2022-10-16T00:45:24;14.80;90.50
25953;DHT22;13750;50.804;8.764;2022-10-16T00:47:49;14.80;90.50
25953;DHT22;13750;50.804;8.764;2022-10-16T00:50:24;14.70;90.40
25953;DHT22;13750;50.804;8.764;2022-10-16T00:52:51;14.80;90.40
25953;DHT22;13750;50.804;8.764;2022-10-16T00:55:19;14.80;90.40
25953;DHT22;13750;50.804;8.764;2022-10-16T00:57:48;14.80;90.40
25953;DHT22;13750;50.804;8.764;2022-10-16T01:00:19;14.70;90.30
25953;DHT22;13750;50.804;8.764;2022-10-16T01:02:51;14.70;90.30
25953;DHT22;13750;50.804;8.764;2022-10-16T01:05:16;14.70;90.30
25953;DHT22;13750;50.804;8.764;2022-10-16T01:10:28;14.70;90.20
25953;DHT22;13750;50.804;8.764;2022-10-16T01:12:58;14.70;90.20
25953;DHT22;13750;50.804;8.764;2022-10-16T01:15:26;14.60;90.10
25953;DHT22;13750;50.804;8.764;2022-10-16T01:20:47;14.60;90.10
25953;DHT22;13750;50.804;8.764;2022-10-16T01:25:55;14.60;89.90
25953;DHT22;13750;50.804;8.764;2022-10-16T01:28:34;14.60;89.90
25953;DHT22;13750;50.804;8.764;2022-10-16T01:31:01;14.60;89.90
25953;DHT22;13750;50.804;8.764;2022-10-16T01:33:29;14.60;89.90
25953;DHT22;13750;50.804;8.764;2022-10-16T01:35:58;14.60;89.90
25953;DHT22;13750;50.804;8.764;2022-10-16T01:40:51;14.50;89.90
25953;DHT22;13750;50.804;8.764;2022-10-16T01:43:19;14.50;89.90
25953;DHT22;13750;50.804;8.764;2022-10-16T01:45:48;14.50;89.90
25953;DHT22;13750;50.804;8.764;2022-10-16T01:48:16;14.50;89.90
25953;DHT22;13750;50.804;8.764;2022-10-16T01:50:43;14.50;89.80
25953;DHT22;13750;50.804;8.764;2022-10-16T01:53:10;14.50;89.80
25953;DHT22;13750;50.804;8.764;2022-10-16T01:55:38;14.50;89.80
25953;DHT22;13750;50.804;8.764;2022-10-16T01:58:05;14.40;89.80
25953;DHT22;13750;50.804;8.764;2022-10-16T02:00:32;14.50;89.80
25953;DHT22;13750;50.804;8.764;2022-10-16T02:02:58;14.40;89.70
25953;DHT22;13750;50.804;8.764;2022-10-16T02:05:26;14.40;89.60
25953;DHT22;13750;50.804;8.764;2022-10-16T02:07:54;14.40;89.60
25953;DHT22;13750;50.804;8.764;2022-10-16T02:10:20;14.40;89.60
25953;DHT22;13750;50.804;8.764;2022-10-16T02:12:56;14.40;89.60
25953;DHT22;13750;50.804;8.764;2022-10-16T02:15:22;14.30;89.60
25953;DHT22;13750;50.804;8.764;2022-10-16T02:17:48;14.40;89.60
25953;DHT22;13750;50.804;8.764;2022-10-16T02:20:13;14.30;89.50
25953;DHT22;13750;50.804;8.764;2022-10-16T02:22:42;14.30;89.50
25953;DHT22;13750;50.804;8.764;2022-10-16T02:25:10;14.30;89.50
25953;DHT22;13750;50.804;8.764;2022-10-16T02:32:37;14.20;89.40
25953;DHT22;13750;50.804;8.764;2022-10-16T02:35:13;14.20;89.40
25953;DHT22;13750;50.804;8.764;2022-10-16T02:37:39;14.20;89.50
25953;DHT22;13750;50.804;8.764;2022-10-16T02:40:05;14.30;89.50
25953;DHT22;13750;50.804;8.764;2022-10-16T02:42:33;14.20;89.50
25953;DHT22;13750;50.804;8.764;2022-10-16T02:44:59;14.20;89.40
25953;DHT22;13750;50.804;8.764;2022-10-16T02:47:25;14.20;89.30
25953;DHT22;13750;50.804;8.764;2022-10-16T02:49:50;14.20;89.30
25953;DHT22;13750;50.804;8.764;2022-10-16T02:52:16;14.20;89.40
25953;DHT22;13750;50.804;8.764;2022-10-16T02:54:41;14.20;89.40
25953;DHT22;13750;50.804;8.764;2022-10-16T02:57:07;14.10;89.40
25953;DHT22;13750;50.804;8.764;2022-10-16T02:59:34;14.10;89.40
25953;DHT22;13750;50.804;8.764;2022-10-16T03:02:00;14.20;89.40
25953;DHT22;13750;50.804;8.764;2022-10-16T03:04:26;14.20;89.40
25953;DHT22;13750;50.804;8.764;2022-10-16T03:06:51;14.10;89.40
25953;DHT22;13750;50.804;8.764;2022-10-16T03:09:16;14.10;89.30
25953;DHT22;13750;50.804;8.764;2022-10-16T03:11:42;14.10;89.30
25953;DHT22;13750;50.804;8.764;2022-10-16T03:14:07;14.10;89.30
25953;DHT22;13750;50.804;8.764;2022-10-16T03:16:33;14.10;89.30
25953;DHT22;13750;50.804;8.764;2022-10-16T03:18:58;14.10;89.30
25953;DHT22;13750;50.804;8.764;2022-10-16T03:21:24;14.10;89.30
25953;DHT22;13750;50.804;8.764;2022-10-16T03:23:50;14.10;89.30
25953;DHT22;13750;50.804;8.764;2022-10-16T03:26:15;14.10;89.30
25953;DHT22;13750;50.804;8.764;2022-10-16T03:28:41;14.10;89.40
25953;DHT22;13750;50.804;8.764;2022-10-16T03:31:06;14.10;89.40
25953;DHT22;13750;50.804;8.764;2022-10-16T03:33:32;14.10;89.40
25953;DHT22;13750;50.804;8.764;2022-10-16T03:35:57;14.10;89.40
25953;DHT22;13750;50.804;8.764;2022-10-16T03:38:25;14.10;89.40
25953;DHT22;13750;50.804;8.764;2022-10-16T03:40:51;14.10;89.50
25953;DHT22;13750;50.804;8.764;2022-10-16T03:43:16;14.10;89.50
25953;DHT22;13750;50.804;8.764;2022-10-16T03:45:42;14.10;89.50
25953;DHT22;13750;50.804;8.764;2022-10-16T03:48:08;14.10;89.60
25953;DHT22;13750;50.804;8.764;2022-10-16T03:50:33;14.10;89.60
25953;DHT22;13750;50.804;8.764;2022-10-16T03:52:58;14.10;89.60
25953;DHT22;13750;50.804;8.764;2022-10-16T03:55:24;14.10;89.60
25953;DHT22;13750;50.804;8.764;2022-10-16T03:57:49;14.10;89.60
25953;DHT22;13750;50.804;8.764;2022-10-16T04:00:15;14.10;89.50
25953;DHT22;13750;50.804;8.764;2022-10-16T04:02:40;14.10;89.60
25953;DHT22;13750;50.804;8.764;2022-10-16T04:05:06;14.10;89.60
25953;DHT22;13750;50.804;8.764;2022-10-16T04:07:32;14.10;89.60
25953;DHT22;13750;50.804;8.764;2022-10-16T04:09:57;14.20;89.60
25953;DHT22;13750;50.804;8.764;2022-10-16T04:12:24;14.10;89.60
25953;DHT22;13750;50.804;8.764;2022-10-16T04:14:50;14.20;89.60
25953;DHT22;13750;50.804;8.764;2022-10-16T04:17:15;14.20;89.60
25953;DHT22;13750;50.804;8.764;2022-10-16T04:19:41;14.20;89.60
25953;DHT22;13750;50.804;8.764;2022-10-16T04:22:10;14.20;89.60
25953;DHT22;13750;50.804;8.764;2022-10-16T04:24:35;14.20;89.60
25953;DHT22;13750;50.804;8.764;2022-10-16T04:27:01;14.20;89.60
25953;DHT22;13750;50.804;8.764;2022-10-16T04:29:26;14.10;89.60
25953;DHT22;13750;50.804;8.764;2022-10-16T04:31:52;14.10;89.60
25953;DHT22;13750;50.804;8.764;2022-10-16T04:34:17;14.10;89.60
25953;DHT22;13750;50.804;8.764;2022-10-16T04:36:46;14.20;89.60
25953;DHT22;13750;50.804;8.764;2022-10-16T04:39:11;14.10;89.60
25953;DHT22;13750;50.804;8.764;2022-10-16T04:41:37;14.10;89.60
25953;DHT22;13750;50.804;8.764;2022-10-16T04:44:05;14.20;89.60
25953;DHT22;13750;50.804;8.764;2022-10-16T04:46:30;14.10;89.60
25953;DHT22;13750;50.804;8.764;2022-10-16T04:48:56;14.10;89.60
25953;DHT22;13750;50.804;8.764;2022-10-16T04:51:21;14.10;89.60
25953;DHT22;13750;50.804;8.764;2022-10-16T04:53:47;14.10;89.60
25953;DHT22;13750;50.804;8.764;2022-10-16T04:56:12;14.10;89.60
25953;DHT22;13750;50.804;8.764;2022-10-16T04:58:38;14.10;89.60
25953;DHT22;13750;50.804;8.764;2022-10-16T05:01:03;14.10;89.60
25953;DHT22;13750;50.804;8.764;2022-10-16T05:03:29;14.10;89.60
25953;DHT22;13750;50.804;8.764;2022-10-16T05:05:54;14.10;89.60
25953;DHT22;13750;50.804;8.764;2022-10-16T05:08:20;14.10;89.60
25953;DHT22;13750;50.804;8.764;2022-10-16T05:10:45;14.10;89.60
25953;DHT22;13750;50.804;8.764;2022-10-16T05:13:13;14.10;89.50
25953;DHT22;13750;50.804;8.764;2022-10-16T05:15:39;14.10;89.40
25953;DHT22;13750;50.804;8.764;2022-10-16T05:18:04;14.10;89.30
25953;DHT22;13750;50.804;8.764;2022-10-16T05:20:30;14.10;89.30
25953;DHT22;13750;50.804;8.764;2022-10-16T05:22:55;14.10;89.20
25953;DHT22;13750;50.804;8.764;2022-10-16T05:25:21;14.10;89.10
25953;DHT22;13750;50.804;8.764;2022-10-16T05:27:47;14.10;89.00
25953;DHT22;13750;50.804;8.764;2022-10-16T05:30:12;14.10;88.90
25953;DHT22;13750;50.804;8.764;2022-10-16T05:32:40;14.10;88.80
25953;DHT22;13750;50.804;8.764;2022-10-16T05:35:06;14.10;88.70
25953;DHT22;13750;50.804;8.764;2022-10-16T05:37:32;14.10;88.50
25953;DHT22;13750;50.804;8.764;2022-10-16T05:39:57;14.10;88.40
25953;DHT22;13750;50.804;8.764;2022-10-16T05:42:23;14.10;88.30
25953;DHT22;13750;50.804;8.764;2022-10-16T05:44:48;14.10;88.30
25953;DHT22;13750;50.804;8.764;2022-10-16T05:47:14;14.10;88.20
25953;DHT22;13750;50.804;8.764;2022-10-16T05:49:39;14.10;88.20
25953;DHT22;13750;50.804;8.764;2022-10-16T05:52:05;14.10;88.10
25953;DHT22;13750;50.804;8.764;2022-10-16T05:54:30;14.10;88.10
25953;DHT22;13750;50.804;8.764;2022-10-16T05:56:56;14.10;88.10
25953;DHT22;13750;50.804;8.764;2022-10-16T05:59:21;14.10;88.10
25953;DHT22;13750;50.804;8.764;2022-10-16T06:01:47;14.10;88.10
25953;DHT22;13750;50.804;8.764;2022-10-16T06:04:15;14.10;88.00
25953;DHT22;13750;50.804;8.764;2022-10-16T06:06:40;14.10;88.00
25953;DHT22;13750;50.804;8.764;2022-10-16T06:09:06;14.10;87.90
25953;DHT22;13750;50.804;8.764;2022-10-16T06:11:32;14.10;87.90
25953;DHT22;13750;50.804;8.764;2022-10-16T06:13:58;14.00;87.90
25953;DHT22;13750;50.804;8.764;2022-10-16T06:16:25;14.00;87.90
25953;DHT22;13750;50.804;8.764;2022-10-16T06:18:51;14.00;87.80
25953;DHT22;13750;50.804;8.764;2022-10-16T06:21:19;14.00;87.70
25953;DHT22;13750;50.804;8.764;2022-10-16T06:23:44;14.00;87.70
25953;DHT22;13750;50.804;8.764;2022-10-16T06:26:12;14.00;87.70
25953;DHT22;13750;50.804;8.764;2022-10-16T06:28:38;13.90;87.60
25953;DHT22;13750;50.804;8.764;2022-10-16T06:31:04;14.00;87.60
25953;DHT22;13750;50.804;8.764;2022-10-16T06:33:30;13.90;87.60
25953;DHT22;13750;50.804;8.764;2022-10-16T06:36:06;13.90;87.60
25953;DHT22;13750;50.804;8.764;2022-10-16T06:38:31;13.90;87.60
25953;DHT22;13750;50.804;8.764;2022-10-16T06:40:57;13.90;87.60
25953;DHT22;13750;50.804;8.764;2022-10-16T06:43:23;13.90;87.60
25953;DHT22;13750;50.804;8.764;2022-10-16T06:45:55;13.90;87.60
25953;DHT22;13750;50.804;8.764;2022-10-16T06:48:21;13.90;87.50
25953;DHT22;13750;50.804;8.764;2022-10-16T06:53:24;13.90;87.50
25953;DHT22;13750;50.804;8.764;2022-10-16T06:55:50;13.90;87.60
25953;DHT22;13750;50.804;8.764;2022-10-16T06:58:15;13.80;87.60
25953;DHT22;13750;50.804;8.764;2022-10-16T07:00:41;13.90;87.70
25953;DHT22;13750;50.804;8.764;2022-10-16T07:03:06;13.90;87.70
25953;DHT22;13750;50.804;8.764;2022-10-16T07:05:32;13.90;87.80
25953;DHT22;13750;50.804;8.764;2022-10-16T07:08:02;13.90;87.80
25953;DHT22;13750;50.804;8.764;2022-10-16T07:10:30;13.90;87.80
25953;DHT22;13750;50.804;8.764;2022-10-16T07:12:56;13.90;87.90
25953;DHT22;13750;50.804;8.764;2022-10-16T07:15:21;13.90;88.00
25953;DHT22;13750;50.804;8.764;2022-10-16T07:17:47;13.90;87.90
25953;DHT22;13750;50.804;8.764;2022-10-16T07:20:12;13.90;88.00
25953;DHT22;13750;50.804;8.764;2022-10-16T07:22:38;13.90;88.10
25953;DHT22;13750;50.804;8.764;2022-10-16T07:25:03;13.90;88.00
25953;DHT22;13750;50.804;8.764;2022-10-16T07:27:29;13.90;88.00
25953;DHT22;13750;50.804;8.764;2022-10-16T07:29:57;13.90;88.00
25953;DHT22;13750;50.804;8.764;2022-10-16T07:32:22;13.90;88.10
25953;DHT22;13750;50.804;8.764;2022-10-16T07:34:48;13.90;88.10
25953;DHT22;13750;50.804;8.764;2022-10-16T07:37:14;14.00;88.10
25953;DHT22;13750;50.804;8.764;2022-10-16T07:39:39;14.00;88.20
25953;DHT22;13750;50.804;8.764;2022-10-16T07:42:05;14.00;88.20
25953;DHT22;13750;50.804;8.764;2022-10-16T07:44:31;14.00;88.30
25953;DHT22;13750;50.804;8.764;2022-10-16T07:46:56;14.10;88.30
25953;DHT22;13750;50.804;8.764;2022-10-16T07:49:24;14.10;88.40
25953;DHT22;13750;50.804;8.764;2022-10-16T07:51:50;14.10;88.40
25953;DHT22;13750;50.804;8.764;2022-10-16T07:54:15;14.10;88.40
25953;DHT22;13750;50.804;8.764;2022-10-16T07:56:41;14.10;88.40
25953;DHT22;13750;50.804;8.764;2022-10-16T07:59:06;14.10;88.50
25953;DHT22;13750;50.804;8.764;2022-10-16T08:01:32;14.10;88.50
25953;DHT22;13750;50.804;8.764;2022-10-16T08:03:57;14.10;88.60
25953;DHT22;13750;50.804;8.764;2022-10-16T08:06:23;14.20;88.60
25953;DHT22;13750;50.804;8.764;2022-10-16T08:08:48;14.20;88.70
25953;DHT22;13750;50.804;8.764;2022-10-16T08:11:14;14.20;88.70
25953;DHT22;13750;50.804;8.764;2022-10-16T08:13:40;14.30;88.70
25953;DHT22;13750;50.804;8.764;2022-10-16T08:16:06;14.30;88.70
25953;DHT22;13750;50.804;8.764;2022-10-16T08:18:33;14.30;88.80
25953;DHT22;13750;50.804;8.764;2022-10-16T08:20:59;14.40;88.90
25953;DHT22;13750;50.804;8.764;2022-10-16T08:23:25;14.40;88.90
25953;DHT22;13750;50.804;8.764;2022-10-16T08:25:52;14.40;88.90
25953;DHT22;13750;50.804;8.764;2022-10-16T08:28:18;14.40;89.00
25953;DHT22;13750;50.804;8.764;2022-10-16T08:30:44;14.50;89.00
25953;DHT22;13750;50.804;8.764;2022-10-16T08:33:10;14.50;89.00
25953;DHT22;13750;50.804;8.764;2022-10-16T08:35:35;14.50;89.00
25953;DHT22;13750;50.804;8.764;2022-10-16T08:38:04;14.60;89.00
25953;DHT22;13750;50.804;8.764;2022-10-16T08:40:31;14.60;89.10
25953;DHT22;13750;50.804;8.764;2022-10-16T08:43:12;14.60;89.00
25953;DHT22;13750;50.804;8.764;2022-10-16T08:48:27;14.60;89.00
25953;DHT22;13750;50.804;8.764;2022-10-16T08:50:53;14.60;89.00
25953;DHT22;13750;50.804;8.764;2022-10-16T08:53:27;14.70;89.00
25953;DHT22;13750;50.804;8.764;2022-10-16T08:55:54;14.70;89.00
25953;DHT22;13750;50.804;8.764;2022-10-16T08:58:20;14.70;89.00
25953;DHT22;13750;50.804;8.764;2022-10-16T09:00:56;14.80;88.90
25953;DHT22;13750;50.804;8.764;2022-10-16T09:08:57;14.80;88.90
25953;DHT22;13750;50.804;8.764;2022-10-16T09:16:37;14.90;88.90
25953;DHT22;13750;50.804;8.764;2022-10-16T09:19:15;15.00;88.90
25953;DHT22;13750;50.804;8.764;2022-10-16T09:21:42;15.00;88.90
25953;DHT22;13750;50.804;8.764;2022-10-16T09:24:13;15.10;88.80
25953;DHT22;13750;50.804;8.764;2022-10-16T09:26:39;15.10;88.70
25953;DHT22;13750;50.804;8.764;2022-10-16T09:29:05;15.10;88.60
25953;DHT22;13750;50.804;8.764;2022-10-16T09:31:31;15.10;88.50
25953;DHT22;13750;50.804;8.764;2022-10-16T09:34:02;15.10;88.50
25953;DHT22;13750;50.804;8.764;2022-10-16T09:36:35;15.10;88.40
25953;DHT22;13750;50.804;8.764;2022-10-16T09:39:07;15.20;88.40
25953;DHT22;13750;50.804;8.764;2022-10-16T09:41:34;15.20;88.40
25953;DHT22;13750;50.804;8.764;2022-10-16T09:44:01;15.20;88.20
25953;DHT22;13750;50.804;8.764;2022-10-16T09:49:05;15.20;88.00
25953;DHT22;13750;50.804;8.764;2022-10-16T09:51:32;15.20;87.90
25953;DHT22;13750;50.804;8.764;2022-10-16T09:56:31;15.30;87.70
25953;DHT22;13750;50.804;8.764;2022-10-16T09:58:59;15.30;87.60
25953;DHT22;13750;50.804;8.764;2022-10-16T10:01:28;15.30;87.50
25953;DHT22;13750;50.804;8.764;2022-10-16T10:03:57;15.40;87.40
25953;DHT22;13750;50.804;8.764;2022-10-16T10:06:29;15.40;87.30
25953;DHT22;13750;50.804;8.764;2022-10-16T10:08:59;15.40;87.20
25953;DHT22;13750;50.804;8.764;2022-10-16T10:11:36;15.40;87.10
25953;DHT22;13750;50.804;8.764;2022-10-16T10:14:05;15.50;87.00
25953;DHT22;13750;50.804;8.764;2022-10-16T10:16:31;15.50;86.90
25953;DHT22;13750;50.804;8.764;2022-10-16T10:19:00;15.50;86.80
25953;DHT22;13750;50.804;8.764;2022-10-16T10:21:26;15.50;86.60
25953;DHT22;13750;50.804;8.764;2022-10-16T10:23:54;15.60;86.50
25953;DHT22;13750;50.804;8.764;2022-10-16T10:26:21;15.60;86.50
25953;DHT22;13750;50.804;8.764;2022-10-16T10:29:06;15.60;86.30
25953;DHT22;13750;50.804;8.764;2022-10-16T10:31:49;15.70;86.30
25953;DHT22;13750;50.804;8.764;2022-10-16T10:34:23;15.70;86.10
25953;DHT22;13750;50.804;8.764;2022-10-16T10:39:48;15.70;85.80
25953;DHT22;13750;50.804;8.764;2022-10-16T10:42:27;15.70;85.70
25953;DHT22;13750;50.804;8.764;2022-10-16T10:44:57;15.70;85.60
25953;DHT22;13750;50.804;8.764;2022-10-16T11:00:21;15.70;84.90
25953;DHT22;13750;50.804;8.764;2022-10-16T11:02:58;15.70;84.80
25953;DHT22;13750;50.804;8.764;2022-10-16T11:07:58;15.70;84.50
25953;DHT22;13750;50.804;8.764;2022-10-16T11:10:26;15.70;84.50
25953;DHT22;13750;50.804;8.764;2022-10-16T11:13:03;15.70;84.40
25953;DHT22;13750;50.804;8.764;2022-10-16T11:15:31;15.70;84.40
25953;DHT22;13750;50.804;8.764;2022-10-16T11:18:00;15.70;84.20
25953;DHT22;13750;50.804;8.764;2022-10-16T11:20:37;15.70;84.00
25953;DHT22;13750;50.804;8.764;2022-10-16T11:25:36;15.70;83.70
25953;DHT22;13750;50.804;8.764;2022-10-16T11:28:09;15.70;83.50
25953;DHT22;13750;50.804;8.764;2022-10-16T11:31:19;15.70;83.50
25953;DHT22;13750;50.804;8.764;2022-10-16T11:33:41;15.70;83.50
25953;DHT22;13750;50.804;8.764;2022-10-16T11:36:14;15.70;83.40
25953;DHT22;13750;50.804;8.764;2022-10-16T11:38:50;15.70;83.40
25953;DHT22;13750;50.804;8.764;2022-10-16T11:41:27;15.70;83.40
25953;DHT22;13750;50.804;8.764;2022-10-16T11:46:38;15.80;83.30
25953;DHT22;13750;50.804;8.764;2022-10-16T11:49:10;15.80;83.10
25953;DHT22;13750;50.804;8.764;2022-10-16T11:51:42;15.80;82.80
25953;DHT22;13750;50.804;8.764;2022-10-16T11:54:22;15.80;82.70
25953;DHT22;13750;50.804;8.764;2022-10-16T11:56:50;15.80;82.60
25953;DHT22;13750;50.804;8.764;2022-10-16T11:59:36;15.80;82.40
25953;DHT22;13750;50.804;8.764;2022-10-16T12:02:49;15.80;82.50
25953;DHT22;13750;50.804;8.764;2022-10-16T12:04:50;15.80;82.60
25953;DHT22;13750;50.804;8.764;2022-10-16T12:07:22;15.90;82.70
25953;DHT22;13750;50.804;8.764;2022-10-16T12:09:50;15.90;82.80
25953;DHT22;13750;50.804;8.764;2022-10-16T12:12:26;15.90;82.90
25953;DHT22;13750;50.804;8.764;2022-10-16T12:15:03;15.90;82.90
25953;DHT22;13750;50.804;8.764;2022-10-16T12:17:42;15.90;82.80
25953;DHT22;13750;50.804;8.764;2022-10-16T12:22:36;16.00;82.70
25953;DHT22;13750;50.804;8.764;2022-10-16T12:25:02;16.00;82.50
25953;DHT22;13750;50.804;8.764;2022-10-16T12:27:28;16.10;82.40
25953;DHT22;13750;50.804;8.764;2022-10-16T12:29:55;16.10;82.30
25953;DHT22;13750;50.804;8.764;2022-10-16T12:34:53;16.10;82.00
25953;DHT22;13750;50.804;8.764;2022-10-16T12:37:28;16.10;81.70
25953;DHT22;13750;50.804;8.764;2022-10-16T12:39:56;16.10;81.50
25953;DHT22;13750;50.804;8.764;2022-10-16T12:42:30;16.10;81.40
25953;DHT22;13750;50.804;8.764;2022-10-16T12:44:56;16.10;81.30
25953;DHT22;13750;50.804;8.764;2022-10-16T12:47:23;16.10;81.30
25953;DHT22;13750;50.804;8.764;2022-10-16T12:49:53;16.20;81.20
25953;DHT22;13750;50.804;8.764;2022-10-16T12:52:34;16.10;81.20
25953;DHT22;13750;50.804;8.764;2022-10-16T12:55:00;16.10;81.20
25953;DHT22;13750;50.804;8.764;2022-10-16T13:08:21;16.20;79.80
25953;DHT22;13750;50.804;8.764;2022-10-16T13:10:54;16.20;79.50
25953;DHT22;13750;50.804;8.764;2022-10-16T13:13:34;16.20;79.40
25953;DHT22;13750;50.804;8.764;2022-10-16T13:19:00;16.30;79.50
25953;DHT22;13750;50.804;8.764;2022-10-16T13:28:48;16.30;79.50
25953;DHT22;13750;50.804;8.764;2022-10-16T13:31:23;16.30;79.30
25953;DHT22;13750;50.804;8.764;2022-10-16T13:33:50;16.40;79.40
25953;DHT22;13750;50.804;8.764;2022-10-16T13:36:21;16.30;79.60
25953;DHT22;13750;50.804;8.764;2022-10-16T13:38:47;16.30;79.80
25953;DHT22;13750;50.804;8.764;2022-10-16T13:41:16;16.30;79.90
25953;DHT22;13750;50.804;8.764;2022-10-16T13:43:43;16.30;80.10
25953;DHT22;13750;50.804;8.764;2022-10-16T13:46:17;16.40;80.20
25953;DHT22;13750;50.804;8.764;2022-10-16T13:48:43;16.40;80.10
25953;DHT22;13750;50.804;8.764;2022-10-16T13:51:16;16.40;80.00
25953;DHT22;13750;50.804;8.764;2022-10-16T13:53:42;16.50;80.00
25953;DHT22;13750;50.804;8.764;2022-10-16T13:56:12;16.50;79.90
25953;DHT22;13750;50.804;8.764;2022-10-16T13:58:41;16.50;79.90
25953;DHT22;13750;50.804;8.764;2022-10-16T14:01:19;16.50;79.70
25953;DHT22;13750;50.804;8.764;2022-10-16T14:03:46;16.60;79.60
25953;DHT22;13750;50.804;8.764;2022-10-16T14:06:13;16.50;79.50
25953;DHT22;13750;50.804;8.764;2022-10-16T14:11:25;16.60;79.30
25953;DHT22;13750;50.804;8.764;2022-10-16T14:13:51;16.60;79.40
25953;DHT22;13750;50.804;8.764;2022-10-16T14:16:18;16.60;79.40
25953;DHT22;13750;50.804;8.764;2022-10-16T14:18:46;16.60;79.30
25953;DHT22;13750;50.804;8.764;2022-10-16T14:21:19;16.60;79.30
25953;DHT22;13750;50.804;8.764;2022-10-16T14:23:45;16.60;79.20
25953;DHT22;13750;50.804;8.764;2022-10-16T14:28:38;16.70;79.30
25953;DHT22;13750;50.804;8.764;2022-10-16T14:31:23;16.60;79.40
25953;DHT22;13750;50.804;8.764;2022-10-16T14:33:49;16.70;79.40
25953;DHT22;13750;50.804;8.764;2022-10-16T14:36:15;16.70;79.50
25953;DHT22;13750;50.804;8.764;2022-10-16T14:41:24;16.70;79.60
25953;DHT22;13750;50.804;8.764;2022-10-16T14:43:51;16.80;79.70
25953;DHT22;13750;50.804;8.764;2022-10-16T14:46:19;16.80;79.80
25953;DHT22;13750;50.804;8.764;2022-10-16T14:48:48;16.80;79.80
25953;DHT22;13750;50.804;8.764;2022-10-16T14:51:15;16.80;79.90
25953;DHT22;13750;50.804;8.764;2022-10-16T14:53:44;16.80;80.00
25953;DHT22;13750;50.804;8.764;2022-10-16T14:56:17;16.80;80.10
25953;DHT22;13750;50.804;8.764;2022-10-16T14:58:43;16.80;80.30
25953;DHT22;13750;50.804;8.764;2022-10-16T15:01:09;16.80;80.30
25953;DHT22;13750;50.804;8.764;2022-10-16T15:03:36;16.80;80.50
25953;DHT22;13750;50.804;8.764;2022-10-16T15:06:01;16.80;80.50
25953;DHT22;13750;50.804;8.764;2022-10-16T15:08:27;16.80;80.70
25953;DHT22;13750;50.804;8.764;2022-10-16T15:10:52;16.80;80.90
25953;DHT22;13750;50.804;8.764;2022-10-16T15:13:18;16.80;80.90
25953;DHT22;13750;50.804;8.764;2022-10-16T15:15:44;16.80;81.00
25953;DHT22;13750;50.804;8.764;2022-10-16T15:18:10;16.80;81.10
25953;DHT22;13750;50.804;8.764;2022-10-16T15:20:37;16.80;81.20
25953;DHT22;13750;50.804;8.764;2022-10-16T15:23:03;16.80;81.30
25953;DHT22;13750;50.804;8.764;2022-10-16T15:27:54;16.80;81.50
25953;DHT22;13750;50.804;8.764;2022-10-16T15:30:20;16.70;81.60
25953;DHT22;13750;50.804;8.764;2022-10-16T15:32:45;16.80;81.70
25953;DHT22;13750;50.804;8.764;2022-10-16T15:35:11;16.70;81.80
25953;DHT22;13750;50.804;8.764;2022-10-16T15:37:36;16.70;81.80
25953;DHT22;13750;50.804;8.764;2022-10-16T15:40:04;16.70;81.90
25953;DHT22;13750;50.804;8.764;2022-10-16T15:42:30;16.60;82.00
25953;DHT22;13750;50.804;8.764;2022-10-16T15:44:56;16.60;82.20
25953;DHT22;13750;50.804;8.764;2022-10-16T15:47:21;16.60;82.30
25953;DHT22;13750;50.804;8.764;2022-10-16T15:49:47;16.60;82.40
25953;DHT22;13750;50.804;8.764;2022-10-16T15:52:12;16.60;82.60
25953;DHT22;13750;50.804;8.764;2022-10-16T15:54:38;16.60;82.70
25953;DHT22;13750;50.804;8.764;2022-10-16T15:57:03;16.50;82.80
25953;DHT22;13750;50.804;8.764;2022-10-16T15:59:29;16.50;83.00
25953;DHT22;13750;50.804;8.764;2022-10-16T16:01:55;16.50;83.10
25953;DHT22;13750;50.804;8.764;2022-10-16T16:04:21;16.60;83.20
25953;DHT22;13750;50.804;8.764;2022-10-16T16:06:46;16.50;83.30
25953;DHT22;13750;50.804;8.764;2022-10-16T16:09:12;16.50;83.50
25953;DHT22;13750;50.804;8.764;2022-10-16T16:11:38;16.50;83.60
25953;DHT22;13750;50.804;8.764;2022-10-16T16:14:07;16.50;83.70
25953;DHT22;13750;50.804;8.764;2022-10-16T16:16:35;16.50;83.80
25953;DHT22;13750;50.804;8.764;2022-10-16T16:19:06;16.40;83.90
25953;DHT22;13750;50.804;8.764;2022-10-16T16:21:32;16.40;84.00
25953;DHT22;13750;50.804;8.764;2022-10-16T16:23:58;16.40;84.10
25953;DHT22;13750;50.804;8.764;2022-10-16T16:26:27;16.40;84.20
25953;DHT22;13750;50.804;8.764;2022-10-16T16:28:56;16.40;84.30
25953;DHT22;13750;50.804;8.764;2022-10-16T16:31:25;16.40;84.40
25953;DHT22;13750;50.804;8.764;2022-10-16T16:33:51;16.40;84.50
25953;DHT22;13750;50.804;8.764;2022-10-16T16:36:16;16.40;84.50
25953;DHT22;13750;50.804;8.764;2022-10-16T16:38:43;16.30;84.60
25953;DHT22;13750;50.804;8.764;2022-10-16T16:41:13;16.30;84.70
25953;DHT22;13750;50.804;8.764;2022-10-16T16:43:38;16.30;84.80
25953;DHT22;13750;50.804;8.764;2022-10-16T16:46:04;16.30;84.90
25953;DHT22;13750;50.804;8.764;2022-10-16T16:48:29;16.30;85.00
25953;DHT22;13750;50.804;8.764;2022-10-16T16:50:55;16.30;85.00
25953;DHT22;13750;50.804;8.764;2022-10-16T16:53:23;16.20;85.10
25953;DHT22;13750;50.804;8.764;2022-10-16T16:55:49;16.20;85.20
25953;DHT22;13750;50.804;8.764;2022-10-16T16:58:15;16.20;85.30
25953;DHT22;13750;50.804;8.764;2022-10-16T17:00:46;16.20;85.30
25953;DHT22;13750;50.804;8.764;2022-10-16T17:03:12;16.20;85.40
25953;DHT22;13750;50.804;8.764;2022-10-16T17:05:38;16.20;85.50
25953;DHT22;13750;50.804;8.764;2022-10-16T17:08:06;16.20;85.50
25953;DHT22;13750;50.804;8.764;2022-10-16T17:10:31;16.20;85.60